createdAt,value
2019-03-04T00:01:52.342Z,77.14
2019-03-04T00:04:23.259Z,76.60
2019-03-04T00:06:54.115Z,77.03
2019-03-04T00:09:24.974Z,76.14
2019-03-04T00:11:55.748Z,75.53
2019-03-04T00:14:26.719Z,75.65
2019-03-04T00:16:57.286Z,76.09
2019-03-04T00:19:28.054Z,75.56
2019-03-04T00:21:58.515Z,76.06
2019-03-04T00:24:29.382Z,75.80
2019-03-04T00:27:00.060Z,76.10
2019-03-04T00:29:30.810Z,75.84
2019-03-04T00:32:01.784Z,75.83
2019-03-04T00:34:32.706Z,75.53
2019-03-04T00:37:03.580Z,75.39
2019-03-04T00:39:34.449Z,75.82
2019-03-04T00:42:05.387Z,75.96
2019-03-04T00:44:35.947Z,76.21
2019-03-04T00:47:06.877Z,75.82
2019-03-04T00:49:37.831Z,75.77
2019-03-04T00:52:08.746Z,75.99
2019-03-04T00:54:39.772Z,75.90
2019-03-04T00:57:10.727Z,75.85
2019-03-04T00:59:41.759Z,75.75
2019-03-04T01:02:12.248Z,75.61
2019-03-04T01:04:47.884Z,75.18
2019-03-04T01:07:19.020Z,75.74
2019-03-04T01:09:49.699Z,75.99
2019-03-04T01:12:20.464Z,75.13
2019-03-04T01:14:51.281Z,75.30
2019-03-04T01:17:22.017Z,74.95
2019-03-04T01:19:52.755Z,75.27
2019-03-04T01:22:23.475Z,74.74
2019-03-04T01:24:54.236Z,74.97
2019-03-04T01:27:24.959Z,74.30
2019-03-04T01:29:55.693Z,74.54
2019-03-04T01:32:26.075Z,75.15
2019-03-04T01:34:56.850Z,74.80
2019-03-04T01:37:27.685Z,74.67
2019-03-04T01:39:58.526Z,74.98
2019-03-04T01:42:29.365Z,74.46
2019-03-04T01:45:00.165Z,75.10
2019-03-04T01:47:31.123Z,74.63
2019-03-04T01:50:01.873Z,74.86
2019-03-04T01:52:32.710Z,74.52
2019-03-04T01:55:03.645Z,74.86
2019-03-04T01:57:34.377Z,74.66
2019-03-04T02:00:08.497Z,75.20
2019-03-04T02:02:39.206Z,75.12
2019-03-04T02:05:10.266Z,74.94
2019-03-04T02:07:41.001Z,75.10
2019-03-04T02:10:16.643Z,75.48
2019-03-04T02:12:49.139Z,75.25
2019-03-04T02:15:21.094Z,75.28
2019-03-04T02:17:51.824Z,75.56
2019-03-04T02:20:22.556Z,75.48
2019-03-04T02:22:53.286Z,74.78
2019-03-04T02:25:29.757Z,75.41
2019-03-04T02:28:00.600Z,75.13
2019-03-04T02:30:31.440Z,75.32
2019-03-04T02:33:02.289Z,75.48
2019-03-04T02:35:33.125Z,75.40
2019-03-04T02:38:03.870Z,75.48
2019-03-04T02:40:34.680Z,74.93
2019-03-04T02:43:05.413Z,75.51
2019-03-04T02:45:36.159Z,75.37
2019-03-04T02:48:06.888Z,75.48
2019-03-04T02:50:37.285Z,75.65
2019-03-04T02:53:08.034Z,75.62
2019-03-04T02:55:38.781Z,75.81
2019-03-04T02:58:09.510Z,75.19
2019-03-04T03:00:40.245Z,75.21
2019-03-04T03:03:10.991Z,75.69
2019-03-04T03:05:41.821Z,75.64
2019-03-04T03:08:12.545Z,75.50
2019-03-04T03:10:43.327Z,75.83
2019-03-04T03:13:14.105Z,75.73
2019-03-04T03:15:44.510Z,75.86
2019-03-04T03:18:14.905Z,75.83
2019-03-04T03:20:45.329Z,75.44
2019-03-04T03:23:16.135Z,75.28
2019-03-04T03:25:46.990Z,75.71
2019-03-04T03:28:17.720Z,76.10
2019-03-04T03:30:51.208Z,76.15
2019-03-04T03:33:21.699Z,76.04
2019-03-04T03:35:52.484Z,76.12
2019-03-04T03:38:23.230Z,76.25
2019-03-04T03:40:53.668Z,75.99
2019-03-04T03:43:24.471Z,76.11
2019-03-04T03:45:55.232Z,76.46
2019-03-04T03:48:26.056Z,76.66
2019-03-04T03:50:56.890Z,76.59
2019-03-04T03:53:27.725Z,76.56
2019-03-04T03:55:58.554Z,76.64
2019-03-04T03:58:29.282Z,76.42
2019-03-04T04:01:00.033Z,76.37
2019-03-04T04:03:30.871Z,76.59
2019-03-04T04:06:01.584Z,76.02
2019-03-04T04:08:32.436Z,76.69
2019-03-04T04:11:03.305Z,76.48
2019-03-04T04:13:33.996Z,76.29
2019-03-04T04:16:04.745Z,76.52
2019-03-04T04:18:35.481Z,76.52
2019-03-04T04:21:06.513Z,76.57
2019-03-04T04:23:37.357Z,76.77
2019-03-04T04:26:09.492Z,76.59
2019-03-04T04:28:40.243Z,76.57
2019-03-04T04:31:10.709Z,76.88
2019-03-04T04:33:41.394Z,76.44
2019-03-04T04:36:12.245Z,76.43
2019-03-04T04:38:42.992Z,76.40
2019-03-04T04:41:13.825Z,76.50
2019-03-04T04:43:44.246Z,76.80
2019-03-04T04:46:15.072Z,76.68
2019-03-04T04:48:45.928Z,76.58
2019-03-04T04:51:16.647Z,76.44
2019-03-04T04:53:47.512Z,76.73
2019-03-04T04:56:17.916Z,76.58
2019-03-04T04:58:48.670Z,76.37
2019-03-04T05:01:19.524Z,76.03
2019-03-04T05:03:50.222Z,76.38
2019-03-04T05:06:20.613Z,76.21
2019-03-04T05:08:51.378Z,76.20
2019-03-04T05:11:22.110Z,76.06
2019-03-04T05:13:52.957Z,76.10
2019-03-04T05:16:23.788Z,76.11
2019-03-04T05:18:54.523Z,76.06
2019-03-04T05:21:25.355Z,76.76
2019-03-04T05:23:56.090Z,76.72
2019-03-04T05:26:26.834Z,77.13
2019-03-04T05:28:57.665Z,78.14
2019-03-04T05:31:28.528Z,78.07
2019-03-04T05:33:59.290Z,77.72
2019-03-04T05:36:30.100Z,78.09
2019-03-04T05:39:01.028Z,78.24
2019-03-04T05:41:31.950Z,78.19
2019-03-04T05:44:02.700Z,78.25
2019-03-04T05:46:33.583Z,78.06
2019-03-04T05:49:04.556Z,77.96
2019-03-04T05:51:35.394Z,77.96
2019-03-04T05:54:06.145Z,77.81
2019-03-04T05:56:36.967Z,78.12
2019-03-04T05:59:07.366Z,77.92
2019-03-04T06:01:38.143Z,78.08
2019-03-04T06:04:08.599Z,77.78
2019-03-04T06:06:50.154Z,77.98
2019-03-04T06:09:21.491Z,77.70
2019-03-04T06:11:52.355Z,77.59
2019-03-04T06:14:23.062Z,77.37
2019-03-04T06:16:53.801Z,77.34
2019-03-04T06:19:24.641Z,77.61
2019-03-04T06:21:55.378Z,77.73
2019-03-04T06:24:26.215Z,77.25
2019-03-04T06:26:56.961Z,77.24
2019-03-04T06:29:27.776Z,77.21
2019-03-04T06:31:58.527Z,76.80
2019-03-04T06:34:29.271Z,77.21
2019-03-04T06:37:00.004Z,76.94
2019-03-04T06:39:30.843Z,76.75
2019-03-04T06:42:01.655Z,77.04
2019-03-04T06:44:33.701Z,76.90
2019-03-04T06:47:04.104Z,76.99
2019-03-04T06:49:34.913Z,76.50
2019-03-04T06:52:05.357Z,76.69
2019-03-04T06:54:51.202Z,76.78
2019-03-04T06:57:28.367Z,77.12
2019-03-04T07:00:18.898Z,76.65
2019-03-04T07:02:49.639Z,77.13
2019-03-04T07:05:47.965Z,76.53
2019-03-04T07:08:40.206Z,76.84
2019-03-04T07:11:11.117Z,76.91
2019-03-04T07:13:41.915Z,76.71
2019-03-04T07:16:12.363Z,76.49
2019-03-04T07:18:43.127Z,76.50
2019-03-04T07:21:14.047Z,75.89
2019-03-04T07:23:45.069Z,75.93
2019-03-04T07:26:15.997Z,75.45
2019-03-04T07:28:46.727Z,75.25
2019-03-04T07:31:17.486Z,75.54
2019-03-04T07:33:48.334Z,75.21
2019-03-04T07:36:19.178Z,75.30
2019-03-04T07:38:57.344Z,75.06
2019-03-04T07:41:28.356Z,74.96
2019-03-04T07:43:58.725Z,74.75
2019-03-04T07:46:29.664Z,74.61
2019-03-04T07:49:00.502Z,74.66
2019-03-04T07:51:31.253Z,74.47
2019-03-04T07:54:02.060Z,74.31
2019-03-04T07:56:33.007Z,74.14
2019-03-04T07:59:04.100Z,73.88
2019-03-04T08:01:34.974Z,73.69
2019-03-04T08:04:05.717Z,73.72
2019-03-04T08:06:36.539Z,73.42
2019-03-04T08:09:19.998Z,73.46
2019-03-04T08:12:22.443Z,73.58
2019-03-04T08:14:53.232Z,73.27
2019-03-04T08:17:24.128Z,73.17
2019-03-04T08:19:54.927Z,73.19
2019-03-04T08:22:25.816Z,73.35
2019-03-04T08:24:56.642Z,72.85
2019-03-04T08:27:27.394Z,72.96
2019-03-04T08:29:58.330Z,73.14
2019-03-04T08:32:29.375Z,72.92
2019-03-04T08:35:00.943Z,72.46
2019-03-04T08:37:31.459Z,72.20
2019-03-04T08:40:02.315Z,72.48
2019-03-04T08:42:33.211Z,72.27
2019-03-04T08:45:05.131Z,71.86
2019-03-04T08:47:35.923Z,71.75
2019-03-04T08:50:10.137Z,71.83
2019-03-04T08:52:42.418Z,71.19
2019-03-04T08:55:15.611Z,71.16
2019-03-04T08:57:47.201Z,70.93
2019-03-04T09:00:21.450Z,71.27
2019-03-04T09:02:52.737Z,71.22
2019-03-04T09:05:23.186Z,71.18
2019-03-04T09:07:54.000Z,70.79
2019-03-04T09:10:33.044Z,70.91
2019-03-04T09:13:03.965Z,70.96
2019-03-04T09:15:34.902Z,71.09
2019-03-04T09:18:05.712Z,70.85
2019-03-04T09:20:36.476Z,70.80
2019-03-04T09:23:07.300Z,70.32
2019-03-04T09:25:46.475Z,70.62
2019-03-04T09:28:17.362Z,70.06
2019-03-04T09:30:48.111Z,69.78
2019-03-04T09:33:18.857Z,69.89
2019-03-04T09:35:49.677Z,69.31
2019-03-04T09:38:20.508Z,68.97
2019-03-04T09:40:51.357Z,68.23
2019-03-04T09:43:22.170Z,68.57
2019-03-04T09:45:53.133Z,67.47
2019-03-04T09:48:24.046Z,67.51
2019-03-04T09:50:54.763Z,67.86
2019-03-04T09:53:25.185Z,67.66
2019-03-04T09:55:56.036Z,67.97
2019-03-04T09:58:27.109Z,68.15
2019-03-04T10:01:18.950Z,67.48
2019-03-04T10:03:52.855Z,67.56
2019-03-04T10:06:39.052Z,67.33
2019-03-04T10:09:24.435Z,67.52
2019-03-04T10:11:57.994Z,67.19
2019-03-04T10:14:52.883Z,67.19
2019-03-04T10:17:29.210Z,66.74
2019-03-04T10:20:25.788Z,66.81
2019-03-04T10:23:22.336Z,66.21
2019-03-04T10:26:02.629Z,65.85
2019-03-04T10:28:42.952Z,65.78
2019-03-04T10:31:37.299Z,64.59
2019-03-04T10:34:40.571Z,65.10
2019-03-04T10:37:16.049Z,64.18
2019-03-04T10:40:15.829Z,63.55
2019-03-04T10:43:04.793Z,63.09
2019-03-04T10:45:44.436Z,61.27
2019-03-04T10:48:15.287Z,61.95
2019-03-04T10:50:46.314Z,60.57
2019-03-04T10:53:17.151Z,59.48
2019-03-04T10:55:47.621Z,58.81
2019-03-04T10:58:18.571Z,58.18
2019-03-04T11:00:49.363Z,58.73
2019-03-04T11:03:20.287Z,56.80
2019-03-04T11:05:51.003Z,56.22
2019-03-04T11:08:21.777Z,55.20
2019-03-04T11:10:52.292Z,55.09
2019-03-04T11:13:23.136Z,52.92
2019-03-04T11:15:53.966Z,52.87
2019-03-04T11:18:24.438Z,53.05
2019-03-04T11:20:55.224Z,52.92
2019-03-04T11:23:27.589Z,58.59
2019-03-04T11:25:58.646Z,67.89
2019-03-04T11:28:29.503Z,74.11
2019-03-04T11:31:00.325Z,76.34
2019-03-04T11:33:30.842Z,77.43
2019-03-04T11:36:01.683Z,78.01
2019-03-04T11:38:50.339Z,78.50
2019-03-04T11:41:25.145Z,78.30
2019-03-04T11:43:55.999Z,78.66
2019-03-04T11:46:26.854Z,78.58
2019-03-04T11:49:01.216Z,77.44
2019-03-04T11:51:31.648Z,76.70
2019-03-04T11:54:02.666Z,79.08
2019-03-04T11:56:33.483Z,79.20
2019-03-04T11:59:03.919Z,79.85
2019-03-04T12:01:36.415Z,79.51
2019-03-04T12:04:07.330Z,78.32
2019-03-04T12:06:38.794Z,78.07
2019-03-04T12:09:12.557Z,77.45
2019-03-04T12:11:43.134Z,75.90
2019-03-04T12:14:13.525Z,76.02
2019-03-04T12:16:44.722Z,75.76
2019-03-04T12:19:18.263Z,75.61
2019-03-04T12:21:48.820Z,75.37
2019-03-04T12:24:19.966Z,72.84
2019-03-04T12:26:51.075Z,73.03
2019-03-04T12:29:21.949Z,71.57
2019-03-04T12:32:03.483Z,70.30
2019-03-04T12:34:34.797Z,69.92
2019-03-04T12:37:05.615Z,69.98
2019-03-04T12:39:36.312Z,69.79
2019-03-04T12:42:06.794Z,69.33
2019-03-04T12:44:37.600Z,68.99
2019-03-04T12:47:08.423Z,69.35
2019-03-04T12:49:39.346Z,69.43
2019-03-04T12:52:10.090Z,68.43
2019-03-04T12:54:40.851Z,68.47
2019-03-04T12:57:11.770Z,67.46
2019-03-04T12:59:42.495Z,67.87
2019-03-04T13:02:13.533Z,67.25
2019-03-04T13:04:44.323Z,67.46
2019-03-04T13:07:15.216Z,66.59
2019-03-04T13:09:45.608Z,66.84
2019-03-04T13:12:24.680Z,65.88
2019-03-04T13:14:53.571Z,66.77
2019-03-04T13:17:24.284Z,66.65
2019-03-04T13:19:55.112Z,65.46
2019-03-04T13:22:25.829Z,63.98
2019-03-04T13:24:56.588Z,65.45
2019-03-04T13:27:27.344Z,62.66
2019-03-04T13:29:58.154Z,62.39
2019-03-04T13:32:28.911Z,61.46
2019-03-04T13:34:59.833Z,60.96
2019-03-04T13:37:30.597Z,58.91
2019-03-04T13:40:07.897Z,58.93
2019-03-04T13:42:37.202Z,58.43
2019-03-04T13:45:13.640Z,56.92
2019-03-04T13:47:46.476Z,56.37
2019-03-04T13:50:25.961Z,56.10
2019-03-04T13:52:59.441Z,55.44
2019-03-04T13:55:31.884Z,55.56
2019-03-04T13:58:02.895Z,55.15
2019-03-04T14:00:41.805Z,55.19
2019-03-04T14:03:14.277Z,55.30
2019-03-04T14:05:45.459Z,54.67
2019-03-04T14:08:16.238Z,54.40
2019-03-04T14:10:48.865Z,54.12
2019-03-04T14:13:19.653Z,53.54
2019-03-04T14:15:55.841Z,53.78
2019-03-04T14:18:26.354Z,53.39
2019-03-04T14:20:57.191Z,53.02
2019-03-04T14:23:29.173Z,53.33
2019-03-04T14:26:09.160Z,52.44
2019-03-04T14:28:41.227Z,52.61
2019-03-04T14:31:12.014Z,52.08
2019-03-04T14:33:44.462Z,51.40
2019-03-04T14:36:15.324Z,50.67
2019-03-04T14:39:01.160Z,49.22
2019-03-04T14:41:31.361Z,49.64
2019-03-04T14:44:07.152Z,49.57
2019-03-04T14:46:50.139Z,50.04
2019-03-04T14:49:29.047Z,50.45
2019-03-04T14:52:21.031Z,51.02
2019-03-04T14:55:24.956Z,49.89
2019-03-04T14:58:01.859Z,50.12
2019-03-04T15:00:47.262Z,49.49
2019-03-04T15:03:23.231Z,49.77
2019-03-04T15:05:54.352Z,50.61
2019-03-04T15:08:47.768Z,50.83
2019-03-04T15:11:28.844Z,50.23
2019-03-04T15:13:59.711Z,50.46
2019-03-04T15:16:40.322Z,50.41
2019-03-04T15:19:20.319Z,50.23
2019-03-04T15:21:53.605Z,50.03
2019-03-04T15:24:24.425Z,50.33
2019-03-04T15:26:55.541Z,49.77
2019-03-04T15:29:26.340Z,50.32
2019-03-04T15:31:57.094Z,51.01
2019-03-04T15:34:28.051Z,51.32
2019-03-04T15:36:58.863Z,51.57
2019-03-04T15:39:29.821Z,51.26
2019-03-04T15:42:00.737Z,51.60
2019-03-04T15:44:31.752Z,52.09
2019-03-04T15:47:02.537Z,51.48
2019-03-04T15:49:36.489Z,51.54
2019-03-04T15:52:07.419Z,51.97
2019-03-04T15:54:38.189Z,52.60
2019-03-04T15:57:11.311Z,52.15
2019-03-04T15:59:41.757Z,53.46
2019-03-04T16:02:13.904Z,52.17
2019-03-04T16:04:44.812Z,52.83
2019-03-04T16:07:17.377Z,64.33
2019-03-04T16:09:48.881Z,78.16
2019-03-04T16:12:21.619Z,82.90
2019-03-04T16:14:52.494Z,84.63
2019-03-04T16:17:23.209Z,85.18
2019-03-04T16:20:04.517Z,85.67
2019-03-04T16:22:47.918Z,86.17
2019-03-04T16:25:27.690Z,86.99
2019-03-04T16:28:10.119Z,87.01
2019-03-04T16:30:41.694Z,85.94
2019-03-04T16:33:12.658Z,86.59
2019-03-04T16:35:43.137Z,85.81
2019-03-04T16:38:16.691Z,85.00
2019-03-04T16:40:47.644Z,84.72
2019-03-04T16:43:18.638Z,85.63
2019-03-04T16:45:49.073Z,84.58
2019-03-04T16:48:19.935Z,83.94
2019-03-04T16:50:51.275Z,85.35
2019-03-04T16:53:25.120Z,83.73
2019-03-04T16:55:55.573Z,84.22
2019-03-04T16:58:26.452Z,84.04
2019-03-04T17:00:57.396Z,83.96
2019-03-04T17:03:29.798Z,83.48
2019-03-04T17:06:00.333Z,83.40
2019-03-04T17:08:31.177Z,83.60
2019-03-04T17:11:02.009Z,83.16
2019-03-04T17:13:32.868Z,82.98
2019-03-04T17:16:03.842Z,82.47
2019-03-04T17:18:34.799Z,82.81
2019-03-04T17:21:05.623Z,82.14
2019-03-04T17:23:36.479Z,81.85
2019-03-04T17:26:07.293Z,82.37
2019-03-04T17:28:38.076Z,83.12
2019-03-04T17:31:08.880Z,82.35
2019-03-04T17:33:39.240Z,82.15
2019-03-04T17:36:10.246Z,82.89
2019-03-04T17:38:41.100Z,81.53
2019-03-04T17:41:12.023Z,80.84
2019-03-04T17:43:45.071Z,81.10
2019-03-04T17:46:16.039Z,80.97
2019-03-04T17:48:46.774Z,80.33
2019-03-04T17:51:17.599Z,80.25
2019-03-04T17:53:48.446Z,80.11
2019-03-04T17:56:18.852Z,79.04
2019-03-04T17:58:49.723Z,79.19
2019-03-04T18:01:20.615Z,78.16
2019-03-04T18:03:51.567Z,78.77
2019-03-04T18:06:22.322Z,77.66
2019-03-04T18:08:53.163Z,77.93
2019-03-04T18:11:23.995Z,77.36
2019-03-04T18:13:55.114Z,77.73
2019-03-04T18:16:29.011Z,77.14
2019-03-04T18:19:01.401Z,76.86
2019-03-04T18:21:33.355Z,76.48
2019-03-04T18:24:12.049Z,75.29
2019-03-04T18:26:46.388Z,75.67
2019-03-04T18:29:34.177Z,76.45
2019-03-04T18:32:27.449Z,76.05
2019-03-04T18:36:21.650Z,75.26
2019-03-04T18:38:15.794Z,74.92
2019-03-04T18:41:09.979Z,74.42
2019-03-04T18:44:06.223Z,74.64
2019-03-04T18:46:56.194Z,74.81
2019-03-04T18:49:48.569Z,74.05
2019-03-04T18:52:24.846Z,74.15
2019-03-04T18:54:56.427Z,73.23
2019-03-04T18:57:27.765Z,73.36
2019-03-04T18:59:58.599Z,73.10
2019-03-04T19:02:29.374Z,73.10
2019-03-04T19:05:00.302Z,73.84
2019-03-04T19:07:31.144Z,72.80
2019-03-04T19:10:01.589Z,72.12
2019-03-04T19:12:32.376Z,71.62
2019-03-04T19:15:03.451Z,72.02
2019-03-04T19:17:36.084Z,71.61
2019-03-04T19:23:30.971Z,71.53
2019-03-04T19:26:15.784Z,71.08
2019-03-04T19:29:01.806Z,70.30
2019-03-04T19:31:34.240Z,69.94
2019-03-04T19:34:07.916Z,70.53
2019-03-04T19:36:46.558Z,70.40
2019-03-04T19:39:18.186Z,70.52
2019-03-04T19:41:49.293Z,70.48
2019-03-04T19:44:31.826Z,69.71
2019-03-04T19:47:21.561Z,70.07
2019-03-04T19:50:14.009Z,70.02
2019-03-04T19:52:57.438Z,69.50
2019-03-04T19:55:29.599Z,69.57
2019-03-04T19:58:01.051Z,69.63
2019-03-04T20:00:33.381Z,69.69
2019-03-04T20:03:08.317Z,70.17
2019-03-04T20:05:50.831Z,69.60
2019-03-04T20:08:36.861Z,68.92
2019-03-04T20:11:07.938Z,69.52
2019-03-04T20:13:38.974Z,69.37
2019-03-04T20:16:11.429Z,69.11
2019-03-04T20:18:43.929Z,68.87
2019-03-04T20:21:14.764Z,68.50
2019-03-04T20:23:47.174Z,67.54
2019-03-04T20:26:18.100Z,67.16
2019-03-04T20:28:49.014Z,67.51
2019-03-04T20:31:19.849Z,66.92
2019-03-04T20:33:50.627Z,66.53
2019-03-04T20:36:21.154Z,66.59
2019-03-04T20:38:51.963Z,67.15
2019-03-04T20:41:22.794Z,66.62
2019-03-04T20:43:53.631Z,66.45
2019-03-04T20:46:24.104Z,66.75
2019-03-04T20:48:55.300Z,66.61
2019-03-04T20:51:26.076Z,65.77
2019-03-04T20:53:56.981Z,65.56
2019-03-04T20:56:27.907Z,65.61
2019-03-04T20:58:58.774Z,65.22
2019-03-04T21:01:29.714Z,64.80
2019-03-04T21:04:01.921Z,64.64
2019-03-04T21:06:32.837Z,64.54
2019-03-04T21:09:05.483Z,64.06
2019-03-04T21:11:36.586Z,63.33
2019-03-04T21:14:07.455Z,63.97
2019-03-04T21:16:38.316Z,63.97
2019-03-04T21:19:09.026Z,63.66
2019-03-04T21:21:39.959Z,63.71
2019-03-04T21:24:10.700Z,63.56
2019-03-04T21:26:41.542Z,63.98
2019-03-04T21:29:30.474Z,67.42
2019-03-04T21:32:21.119Z,65.61
2019-03-04T21:35:09.849Z,66.45
2019-03-04T21:37:42.216Z,65.89
2019-03-04T21:40:21.497Z,65.78
2019-03-04T21:42:58.249Z,65.66
2019-03-04T21:45:48.861Z,65.33
2019-03-04T21:48:25.533Z,65.17
2019-03-04T21:51:05.147Z,64.62
2019-03-04T21:53:44.081Z,63.22
2019-03-04T21:56:48.110Z,63.44
2019-03-04T21:59:18.914Z,64.06
2019-03-04T22:01:58.808Z,64.72
2019-03-04T22:04:29.727Z,64.67
2019-03-04T22:07:00.443Z,64.76
2019-03-04T22:09:31.336Z,65.34
2019-03-04T22:12:02.341Z,65.32
2019-03-04T22:14:33.185Z,65.44
2019-03-04T22:17:03.861Z,65.51
2019-03-04T22:19:34.773Z,65.10
2019-03-04T22:22:05.856Z,65.44
2019-03-04T22:24:36.724Z,65.64
2019-03-04T22:27:07.524Z,65.74
2019-03-04T22:29:38.364Z,65.78
2019-03-04T22:32:09.259Z,65.17
2019-03-04T22:34:39.801Z,65.50
2019-03-04T22:37:10.533Z,65.51
2019-03-04T22:39:41.434Z,64.94
2019-03-04T22:42:12.257Z,65.16
2019-03-04T22:44:43.124Z,64.80
2019-03-04T22:47:13.959Z,64.86
2019-03-04T22:49:44.822Z,64.94
2019-03-04T22:52:15.644Z,65.12
2019-03-04T22:54:46.466Z,64.19
2019-03-04T22:57:17.291Z,64.42
2019-03-04T22:59:48.034Z,64.73
2019-03-04T23:02:19.464Z,64.46
2019-03-04T23:04:50.207Z,64.60
2019-03-04T23:07:20.942Z,64.56
2019-03-04T23:09:59.590Z,65.40
2019-03-04T23:12:36.136Z,64.26
2019-03-04T23:15:10.039Z,64.43
2019-03-04T23:17:40.790Z,64.54
2019-03-04T23:20:11.617Z,64.60
2019-03-04T23:22:42.337Z,64.25
2019-03-04T23:25:14.223Z,64.37
2019-03-04T23:27:44.946Z,64.31
2019-03-04T23:30:17.011Z,64.62
2019-03-04T23:32:47.795Z,64.68
2019-03-04T23:35:18.692Z,64.67
2019-03-04T23:37:49.520Z,64.91
2019-03-04T23:40:20.255Z,64.91
2019-03-04T23:42:51.076Z,64.88
2019-03-04T23:45:21.818Z,64.37
2019-03-04T23:47:52.543Z,64.46
2019-03-04T23:50:26.050Z,64.51
2019-03-04T23:52:56.793Z,64.72
2019-03-04T23:55:27.544Z,64.65
2019-03-04T23:57:58.355Z,64.40
